sensor_id;sensor_type;location;lat;lon;timestamp;pressure;altitude;pressure_sealevel;temperature;humidity
75317;BME280;63913;51.492;10.368;2023-05-07T00:02:06;98673.69;;;11.32;78.69
75317;BME280;63913;51.492;10.368;2023-05-07T00:04:32;98670.94;;;11.24;78.99
75317;BME280;63913;51.492;10.368;2023-05-07T00:07:02;98658.03;;;11.23;79.38
75317;BME280;63913;51.492;10.368;2023-05-07T00:09:27;98655.38;;;11.18;79.75
75317;BME280;63913;51.492;10.368;2023-05-07T00:11:53;98656.94;;;11.13;79.45
75317;BME280;63913;51.492;10.368;2023-05-07T00:14:18;98646.53;;;11.07;79.80
75317;BME280;63913;51.492;10.368;2023-05-07T00:16:43;98653.19;;;10.99;80.02
75317;BME280;63913;51.492;10.368;2023-05-07T00:19:09;98651.53;;;11.01;80.42
75317;BME280;63913;51.492;10.368;2023-05-07T00:21:34;98648.94;;;10.99;79.84
75317;BME280;63913;51.492;10.368;2023-05-07T00:24:00;98640.25;;;10.96;79.86
75317;BME280;63913;51.492;10.368;2023-05-07T00:26:25;98648.16;;;11.03;80.28
75317;BME280;63913;51.492;10.368;2023-05-07T00:28:51;98653.28;;;11.03;80.12
75317;BME280;63913;51.492;10.368;2023-05-07T00:31:17;98649.75;;;10.98;80.20
75317;BME280;63913;51.492;10.368;2023-05-07T00:33:42;98648.97;;;11.01;79.74
75317;BME280;63913;51.492;10.368;2023-05-07T00:36:07;98647.22;;;11.00;79.95
75317;BME280;63913;51.492;10.368;2023-05-07T00:38:33;98648.97;;;11.01;79.65
75317;BME280;63913;51.492;10.368;2023-05-07T00:40:58;98651.38;;;10.93;79.95
75317;BME280;63913;51.492;10.368;2023-05-07T00:43:24;98644.53;;;10.95;79.63
75317;BME280;63913;51.492;10.368;2023-05-07T00:45:49;98650.50;;;10.93;79.44
75317;BME280;63913;51.492;10.368;2023-05-07T00:48:15;98644.44;;;10.91;79.62
75317;BME280;63913;51.492;10.368;2023-05-07T00:50:41;98640.97;;;10.89;79.66
75317;BME280;63913;51.492;10.368;2023-05-07T00:53:07;98641.69;;;10.83;79.34
75317;BME280;63913;51.492;10.368;2023-05-07T00:55:32;98642.44;;;10.79;79.30
75317;BME280;63913;51.492;10.368;2023-05-07T00:57:58;98650.16;;;10.78;79.69
75317;BME280;63913;51.492;10.368;2023-05-07T01:00:23;98634.63;;;10.75;79.92
75317;BME280;63913;51.492;10.368;2023-05-07T01:02:50;98633.66;;;10.69;79.93
75317;BME280;63913;51.492;10.368;2023-05-07T01:05:17;98643.03;;;10.67;80.22
75317;BME280;63913;51.492;10.368;2023-05-07T01:07:44;98636.88;;;10.61;80.52
75317;BME280;63913;51.492;10.368;2023-05-07T01:10:10;98633.94;;;10.47;81.10
75317;BME280;63913;51.492;10.368;2023-05-07T01:12:37;98635.66;;;10.47;81.17
75317;BME280;63913;51.492;10.368;2023-05-07T01:15:05;98640.66;;;10.41;81.38
75317;BME280;63913;51.492;10.368;2023-05-07T01:17:37;98644.09;;;10.41;81.35
75317;BME280;63913;51.492;10.368;2023-05-07T01:20:07;98639.81;;;10.42;81.38
75317;BME280;63913;51.492;10.368;2023-05-07T01:22:38;98638.03;;;10.38;81.45
75317;BME280;63913;51.492;10.368;2023-05-07T01:25:05;98642.16;;;10.32;81.39
75317;BME280;63913;51.492;10.368;2023-05-07T01:27:31;98648.31;;;10.38;81.24
75317;BME280;63913;51.492;10.368;2023-05-07T01:29:58;98645.31;;;10.22;81.88
75317;BME280;63913;51.492;10.368;2023-05-07T01:32:31;98642.00;;;10.26;81.62
75317;BME280;63913;51.492;10.368;2023-05-07T01:34:58;98640.22;;;10.24;81.96
75317;BME280;63913;51.492;10.368;2023-05-07T01:37:25;98641.13;;;10.26;82.20
75317;BME280;63913;51.492;10.368;2023-05-07T01:39:52;98638.38;;;10.18;82.38
75317;BME280;63913;51.492;10.368;2023-05-07T01:42:17;98645.34;;;10.24;82.25
75317;BME280;63913;51.492;10.368;2023-05-07T01:44:43;98638.56;;;10.26;82.24
75317;BME280;63913;51.492;10.368;2023-05-07T01:47:08;98629.84;;;10.19;82.35
75317;BME280;63913;51.492;10.368;2023-05-07T01:49:34;98629.72;;;10.16;82.45
75317;BME280;63913;51.492;10.368;2023-05-07T01:52:00;98640.56;;;10.06;83.25
75317;BME280;63913;51.492;10.368;2023-05-07T01:54:26;98642.41;;;10.10;82.71
75317;BME280;63913;51.492;10.368;2023-05-07T01:56:55;98660.34;;;10.09;82.81
75317;BME280;63913;51.492;10.368;2023-05-07T01:59:21;98651.84;;;10.11;83.15
75317;BME280;63913;51.492;10.368;2023-05-07T02:01:46;98659.66;;;10.16;82.90
75317;BME280;63913;51.492;10.368;2023-05-07T02:04:12;98662.38;;;10.19;82.54
75317;BME280;63913;51.492;10.368;2023-05-07T02:06:38;98667.34;;;10.14;82.84
75317;BME280;63913;51.492;10.368;2023-05-07T02:09:05;98661.25;;;10.11;82.75
75317;BME280;63913;51.492;10.368;2023-05-07T02:11:31;98671.19;;;9.97;83.29
75317;BME280;63913;51.492;10.368;2023-05-07T02:13:56;98670.13;;;9.90;83.77
75317;BME280;63913;51.492;10.368;2023-05-07T02:16:21;98656.41;;;9.90;83.55
75317;BME280;63913;51.492;10.368;2023-05-07T02:18:48;98653.81;;;9.88;83.69
75317;BME280;63913;51.492;10.368;2023-05-07T02:21:14;98645.03;;;9.82;84.09
75317;BME280;63913;51.492;10.368;2023-05-07T02:23:39;98655.47;;;9.86;83.77
75317;BME280;63913;51.492;10.368;2023-05-07T02:26:04;98662.16;;;9.81;84.12
75317;BME280;63913;51.492;10.368;2023-05-07T02:28:30;98659.59;;;9.81;84.24
75317;BME280;63913;51.492;10.368;2023-05-07T02:31:05;98666.59;;;9.87;83.82
75317;BME280;63913;51.492;10.368;2023-05-07T02:33:31;98672.72;;;9.92;83.61
75317;BME280;63913;51.492;10.368;2023-05-07T02:36:05;98673.50;;;9.88;83.45
75317;BME280;63913;51.492;10.368;2023-05-07T02:38:30;98675.84;;;9.82;83.89
75317;BME280;63913;51.492;10.368;2023-05-07T02:40:56;98673.09;;;9.74;84.21
75317;BME280;63913;51.492;10.368;2023-05-07T02:43:21;98676.63;;;9.78;83.88
75317;BME280;63913;51.492;10.368;2023-05-07T02:45:48;98671.47;;;9.78;83.78
75317;BME280;63913;51.492;10.368;2023-05-07T02:48:14;98669.84;;;9.81;83.59
75317;BME280;63913;51.492;10.368;2023-05-07T02:50:39;98663.56;;;9.70;83.52
75317;BME280;63913;51.492;10.368;2023-05-07T02:53:05;98666.97;;;9.69;84.15
75317;BME280;63913;51.492;10.368;2023-05-07T02:55:30;98672.97;;;9.70;84.19
75317;BME280;63913;51.492;10.368;2023-05-07T02:57:56;98664.38;;;9.69;84.23
75317;BME280;63913;51.492;10.368;2023-05-07T03:00:22;98663.69;;;9.75;83.87
75317;BME280;63913;51.492;10.368;2023-05-07T03:03:04;98653.50;;;9.78;83.53
75317;BME280;63913;51.492;10.368;2023-05-07T03:05:30;98658.59;;;9.76;82.70
75317;BME280;63913;51.492;10.368;2023-05-07T03:07:55;98662.03;;;9.77;82.36
75317;BME280;63913;51.492;10.368;2023-05-07T03:10:21;98657.69;;;9.74;82.53
75317;BME280;63913;51.492;10.368;2023-05-07T03:12:46;98655.22;;;9.77;82.72
75317;BME280;63913;51.492;10.368;2023-05-07T03:15:15;98650.94;;;9.78;82.39
75317;BME280;63913;51.492;10.368;2023-05-07T03:17:41;98651.66;;;9.74;82.41
75317;BME280;63913;51.492;10.368;2023-05-07T03:20:07;98655.97;;;9.75;82.47
75317;BME280;63913;51.492;10.368;2023-05-07T03:22:32;98641.34;;;9.71;82.35
75317;BME280;63913;51.492;10.368;2023-05-07T03:24:58;98649.03;;;9.71;82.26
75317;BME280;63913;51.492;10.368;2023-05-07T03:27:23;98642.22;;;9.71;82.67
75317;BME280;63913;51.492;10.368;2023-05-07T03:29:51;98648.44;;;9.79;84.80
75317;BME280;63913;51.492;10.368;2023-05-07T03:32:16;98644.63;;;9.67;84.60
75317;BME280;63913;51.492;10.368;2023-05-07T03:34:42;98639.63;;;9.71;84.52
75317;BME280;63913;51.492;10.368;2023-05-07T03:37:10;98642.94;;;9.67;84.27
75317;BME280;63913;51.492;10.368;2023-05-07T03:39:36;98649.69;;;9.64;85.08
75317;BME280;63913;51.492;10.368;2023-05-07T03:42:02;98638.41;;;9.58;84.60
75317;BME280;63913;51.492;10.368;2023-05-07T03:44:29;98659.00;;;9.60;84.76
75317;BME280;63913;51.492;10.368;2023-05-07T03:46:56;98662.38;;;9.59;84.56
75317;BME280;63913;51.492;10.368;2023-05-07T03:49:21;98668.38;;;9.60;84.85
75317;BME280;63913;51.492;10.368;2023-05-07T03:51:47;98667.63;;;9.62;84.76
75317;BME280;63913;51.492;10.368;2023-05-07T03:54:12;98665.97;;;9.64;84.64
75317;BME280;63913;51.492;10.368;2023-05-07T03:56:42;98670.19;;;9.62;84.53
75317;BME280;63913;51.492;10.368;2023-05-07T03:59:07;98675.38;;;9.65;84.61
75317;BME280;63913;51.492;10.368;2023-05-07T04:01:33;98676.84;;;9.55;84.09
75317;BME280;63913;51.492;10.368;2023-05-07T04:03:58;98686.31;;;9.58;84.65
75317;BME280;63913;51.492;10.368;2023-05-07T04:06:24;98684.66;;;9.60;84.89
75317;BME280;63913;51.492;10.368;2023-05-07T04:08:49;98681.28;;;9.61;84.71
75317;BME280;63913;51.492;10.368;2023-05-07T04:11:15;98683.66;;;9.55;84.78
75317;BME280;63913;51.492;10.368;2023-05-07T04:13:40;98682.16;;;9.62;84.79
75317;BME280;63913;51.492;10.368;2023-05-07T04:16:08;98679.41;;;9.55;84.35
75317;BME280;63913;51.492;10.368;2023-05-07T04:18:35;98691.41;;;9.56;84.57
75317;BME280;63913;51.492;10.368;2023-05-07T04:21:00;98689.34;;;9.45;84.58
75317;BME280;63913;51.492;10.368;2023-05-07T04:23:26;98695.34;;;9.45;84.91
75317;BME280;63913;51.492;10.368;2023-05-07T04:25:52;98704.16;;;9.53;84.63
75317;BME280;63913;51.492;10.368;2023-05-07T04:28:23;98695.75;;;9.59;84.32
75317;BME280;63913;51.492;10.368;2023-05-07T04:30:49;98697.41;;;9.57;84.23
75317;BME280;63913;51.492;10.368;2023-05-07T04:33:15;98706.78;;;9.55;84.56
75317;BME280;63913;51.492;10.368;2023-05-07T04:35:44;98715.19;;;9.51;84.30
75317;BME280;63913;51.492;10.368;2023-05-07T04:38:09;98707.59;;;9.54;84.80
75317;BME280;63913;51.492;10.368;2023-05-07T04:40:35;98716.94;;;9.52;85.03
75317;BME280;63913;51.492;10.368;2023-05-07T04:43:01;98721.31;;;9.54;85.05
75317;BME280;63913;51.492;10.368;2023-05-07T04:45:30;98712.78;;;9.57;85.43
75317;BME280;63913;51.492;10.368;2023-05-07T04:47:55;98710.22;;;9.55;85.51
75317;BME280;63913;51.492;10.368;2023-05-07T04:50:20;98711.22;;;9.61;85.60
75317;BME280;63913;51.492;10.368;2023-05-07T04:52:49;98712.03;;;9.60;85.89
75317;BME280;63913;51.492;10.368;2023-05-07T04:55:15;98720.38;;;9.52;85.81
75317;BME280;63913;51.492;10.368;2023-05-07T04:57:41;98718.72;;;9.54;86.09
75317;BME280;63913;51.492;10.368;2023-05-07T05:00:08;98719.44;;;9.50;86.56
75317;BME280;63913;51.492;10.368;2023-05-07T05:02:35;98724.53;;;9.49;87.07
75317;BME280;63913;51.492;10.368;2023-05-07T05:05:01;98718.56;;;9.50;86.74
75317;BME280;63913;51.492;10.368;2023-05-07T05:07:28;98734.72;;;9.46;86.70
75317;BME280;63913;51.492;10.368;2023-05-07T05:09:54;98746.63;;;9.44;87.10
75317;BME280;63913;51.492;10.368;2023-05-07T05:12:19;98758.41;;;9.37;87.80
75317;BME280;63913;51.492;10.368;2023-05-07T05:14:45;98766.22;;;9.40;87.89
75317;BME280;63913;51.492;10.368;2023-05-07T05:17:11;98774.97;;;9.47;89.02
75317;BME280;63913;51.492;10.368;2023-05-07T05:19:36;98772.00;;;9.35;87.82
75317;BME280;63913;51.492;10.368;2023-05-07T05:22:01;98785.53;;;9.29;89.51
75317;BME280;63913;51.492;10.368;2023-05-07T05:24:30;98779.88;;;9.41;88.96
75317;BME280;63913;51.492;10.368;2023-05-07T05:26:55;98781.41;;;9.34;88.34
75317;BME280;63913;51.492;10.368;2023-05-07T05:29:22;98778.94;;;9.37;88.94
75317;BME280;63913;51.492;10.368;2023-05-07T05:31:47;98774.91;;;9.45;89.52
75317;BME280;63913;51.492;10.368;2023-05-07T05:34:13;98772.28;;;9.44;88.16
75317;BME280;63913;51.492;10.368;2023-05-07T05:36:39;98777.06;;;9.32;88.82
75317;BME280;63913;51.492;10.368;2023-05-07T05:39:05;98772.66;;;9.28;88.65
75317;BME280;63913;51.492;10.368;2023-05-07T05:41:31;98766.81;;;9.32;88.68
75317;BME280;63913;51.492;10.368;2023-05-07T05:43:56;98783.84;;;9.30;88.70
75317;BME280;63913;51.492;10.368;2023-05-07T05:46:22;98778.41;;;9.21;88.09
75317;BME280;63913;51.492;10.368;2023-05-07T05:48:49;98778.47;;;9.22;88.74
75317;BME280;63913;51.492;10.368;2023-05-07T05:51:15;98781.72;;;9.18;88.42
75317;BME280;63913;51.492;10.368;2023-05-07T05:53:40;98781.66;;;9.15;88.55
75317;BME280;63913;51.492;10.368;2023-05-07T05:56:06;98766.09;;;9.10;88.49
75317;BME280;63913;51.492;10.368;2023-05-07T05:58:33;98772.41;;;9.20;88.55
75317;BME280;63913;51.492;10.368;2023-05-07T06:01:01;98771.47;;;9.18;88.83
75317;BME280;63913;51.492;10.368;2023-05-07T06:03:28;98768.81;;;9.15;88.77
75317;BME280;63913;51.492;10.368;2023-05-07T06:05:55;98764.66;;;9.18;88.89
75317;BME280;63913;51.492;10.368;2023-05-07T06:08:21;98768.97;;;9.19;87.95
75317;BME280;63913;51.492;10.368;2023-05-07T06:10:46;98761.22;;;9.18;88.23
75317;BME280;63913;51.492;10.368;2023-05-07T06:13:12;98774.41;;;9.03;88.66
75317;BME280;63913;51.492;10.368;2023-05-07T06:15:38;98764.84;;;8.98;88.52
75317;BME280;63913;51.492;10.368;2023-05-07T06:18:08;98765.78;;;9.01;89.45
75317;BME280;63913;51.492;10.368;2023-05-07T06:20:33;98766.66;;;9.02;88.68
75317;BME280;63913;51.492;10.368;2023-05-07T06:23:02;98764.78;;;8.96;88.51
75317;BME280;63913;51.492;10.368;2023-05-07T06:25:28;98758.22;;;9.04;89.42
75317;BME280;63913;51.492;10.368;2023-05-07T06:27:53;98763.41;;;9.06;89.22
75317;BME280;63913;51.492;10.368;2023-05-07T06:30:18;98765.34;;;9.13;89.16
75317;BME280;63913;51.492;10.368;2023-05-07T06:32:44;98774.84;;;9.15;89.54
75317;BME280;63913;51.492;10.368;2023-05-07T06:35:11;98777.19;;;9.09;88.47
75317;BME280;63913;51.492;10.368;2023-05-07T06:37:38;98782.31;;;9.09;89.56
75317;BME280;63913;51.492;10.368;2023-05-07T06:40:06;98777.16;;;9.08;88.53
75317;BME280;63913;51.492;10.368;2023-05-07T06:42:35;98787.44;;;9.09;88.50
75317;BME280;63913;51.492;10.368;2023-05-07T06:45:19;98788.13;;;9.04;88.58
75317;BME280;63913;51.492;10.368;2023-05-07T06:47:44;98787.19;;;9.02;88.56
75317;BME280;63913;51.492;10.368;2023-05-07T06:50:10;98785.75;;;9.10;89.33
75317;BME280;63913;51.492;10.368;2023-05-07T06:52:35;98790.75;;;9.05;89.03
75317;BME280;63913;51.492;10.368;2023-05-07T06:55:01;98795.81;;;9.04;88.93
75317;BME280;63913;51.492;10.368;2023-05-07T06:57:26;98795.06;;;9.06;88.64
75317;BME280;63913;51.492;10.368;2023-05-07T06:59:52;98790.06;;;9.11;88.49
75317;BME280;63913;51.492;10.368;2023-05-07T07:02:18;98794.88;;;9.02;88.05
75317;BME280;63913;51.492;10.368;2023-05-07T07:04:44;98797.63;;;9.06;88.37
75317;BME280;63913;51.492;10.368;2023-05-07T07:07:10;98793.25;;;9.04;88.80
75317;BME280;63913;51.492;10.368;2023-05-07T07:09:36;98788.25;;;9.08;88.77
75317;BME280;63913;51.492;10.368;2023-05-07T07:12:03;98802.81;;;9.08;88.67
75317;BME280;63913;51.492;10.368;2023-05-07T07:14:29;98800.25;;;9.08;87.99
75317;BME280;63913;51.492;10.368;2023-05-07T07:16:54;98795.00;;;9.05;87.88
75317;BME280;63913;51.492;10.368;2023-05-07T07:19:21;98805.50;;;9.12;88.45
75317;BME280;63913;51.492;10.368;2023-05-07T07:21:49;98807.38;;;9.18;88.16
75317;BME280;63913;51.492;10.368;2023-05-07T07:24:15;98803.06;;;9.17;87.92
75317;BME280;63913;51.492;10.368;2023-05-07T07:26:45;98809.25;;;9.22;87.50
75317;BME280;63913;51.492;10.368;2023-05-07T07:29:11;98806.69;;;9.22;87.87
75317;BME280;63913;51.492;10.368;2023-05-07T07:31:37;98808.19;;;9.15;87.57
75317;BME280;63913;51.492;10.368;2023-05-07T07:34:03;98810.81;;;9.18;87.56
75317;BME280;63913;51.492;10.368;2023-05-07T07:36:28;98805.88;;;9.23;87.40
75317;BME280;63913;51.492;10.368;2023-05-07T07:38:54;98807.75;;;9.29;87.47
75317;BME280;63913;51.492;10.368;2023-05-07T07:41:19;98812.25;;;9.36;87.06
75317;BME280;63913;51.492;10.368;2023-05-07T07:43:46;98812.13;;;9.31;86.77
75317;BME280;63913;51.492;10.368;2023-05-07T07:46:15;98796.78;;;9.34;86.47
75317;BME280;63913;51.492;10.368;2023-05-07T07:48:41;98807.97;;;9.36;86.11
75317;BME280;63913;51.492;10.368;2023-05-07T07:51:07;98812.59;;;9.46;87.08
75317;BME280;63913;51.492;10.368;2023-05-07T07:53:33;98806.81;;;9.53;86.43
75317;BME280;63913;51.492;10.368;2023-05-07T07:55:59;98812.06;;;9.56;86.43
75317;BME280;63913;51.492;10.368;2023-05-07T07:58:26;98814.53;;;9.53;85.52
75317;BME280;63913;51.492;10.368;2023-05-07T08:00:52;98818.97;;;9.59;86.02
75317;BME280;63913;51.492;10.368;2023-05-07T08:03:21;98812.97;;;9.58;84.40
75317;BME280;63913;51.492;10.368;2023-05-07T08:05:50;98828.06;;;9.49;85.37
75317;BME280;63913;51.492;10.368;2023-05-07T08:08:16;98820.59;;;9.57;85.07
75317;BME280;63913;51.492;10.368;2023-05-07T08:10:42;98837.00;;;9.61;85.02
75317;BME280;63913;51.492;10.368;2023-05-07T08:13:17;98826.53;;;9.54;84.85
75317;BME280;63913;51.492;10.368;2023-05-07T08:15:42;98832.63;;;9.58;85.08
75317;BME280;63913;51.492;10.368;2023-05-07T08:18:08;98832.69;;;9.60;84.75
75317;BME280;63913;51.492;10.368;2023-05-07T08:20:33;98837.75;;;9.56;84.45
75317;BME280;63913;51.492;10.368;2023-05-07T08:23:02;98831.91;;;9.62;84.98
75317;BME280;63913;51.492;10.368;2023-05-07T08:25:28;98824.25;;;9.64;84.35
75317;BME280;63913;51.492;10.368;2023-05-07T08:27:53;98836.94;;;9.59;84.60
75317;BME280;63913;51.492;10.368;2023-05-07T08:30:18;98830.16;;;9.61;84.27
75317;BME280;63913;51.492;10.368;2023-05-07T08:32:44;98837.00;;;9.61;84.22
75317;BME280;63913;51.492;10.368;2023-05-07T08:35:09;98818.97;;;9.59;84.45
75317;BME280;63913;51.492;10.368;2023-05-07T08:37:35;98817.38;;;9.63;84.13
75317;BME280;63913;51.492;10.368;2023-05-07T08:40:00;98826.34;;;9.48;84.45
75317;BME280;63913;51.492;10.368;2023-05-07T08:42:31;98824.59;;;9.47;84.39
75317;BME280;63913;51.492;10.368;2023-05-07T08:44:58;98832.38;;;9.50;84.28
75317;BME280;63913;51.492;10.368;2023-05-07T08:47:29;98828.19;;;9.52;84.29
75317;BME280;63913;51.492;10.368;2023-05-07T08:50:00;98830.06;;;9.58;84.17
75317;BME280;63913;51.492;10.368;2023-05-07T08:52:26;98831.91;;;9.62;84.18
75317;BME280;63913;51.492;10.368;2023-05-07T08:54:52;98816.63;;;9.67;84.29
75317;BME280;63913;51.492;10.368;2023-05-07T08:57:18;98821.94;;;9.71;83.81
75317;BME280;63913;51.492;10.368;2023-05-07T08:59:45;98822.34;;;9.85;83.29
75317;BME280;63913;51.492;10.368;2023-05-07T09:02:11;98822.28;;;9.83;83.23
75317;BME280;63913;51.492;10.368;2023-05-07T09:04:37;98835.22;;;9.86;82.75
75317;BME280;63913;51.492;10.368;2023-05-07T09:07:04;98832.19;;;9.71;83.96
75317;BME280;63913;51.492;10.368;2023-05-07T09:09:33;98829.94;;;9.82;83.21
75317;BME280;63913;51.492;10.368;2023-05-07T09:12:00;98828.47;;;9.90;83.02
75317;BME280;63913;51.492;10.368;2023-05-07T09:14:27;98820.97;;;9.96;82.13
75317;BME280;63913;51.492;10.368;2023-05-07T09:16:53;98835.47;;;9.94;81.65
75317;BME280;63913;51.492;10.368;2023-05-07T09:19:23;98827.66;;;9.91;81.88
75317;BME280;63913;51.492;10.368;2023-05-07T09:21:50;98835.47;;;9.94;81.84
75317;BME280;63913;51.492;10.368;2023-05-07T09:24:15;98844.88;;;9.93;82.22
75317;BME280;63913;51.492;10.368;2023-05-07T09:26:42;98844.22;;;10.01;82.42
75317;BME280;63913;51.492;10.368;2023-05-07T09:29:12;98834.09;;;10.05;81.71
75317;BME280;63913;51.492;10.368;2023-05-07T09:31:39;98833.16;;;10.03;81.88
75317;BME280;63913;51.492;10.368;2023-05-07T09:34:06;98838.22;;;10.00;81.90
75317;BME280;63913;51.492;10.368;2023-05-07T09:36:34;98834.03;;;10.04;81.89
75317;BME280;63913;51.492;10.368;2023-05-07T09:39:01;98838.59;;;10.14;81.51
75317;BME280;63913;51.492;10.368;2023-05-07T09:41:26;98837.22;;;10.23;80.75
75317;BME280;63913;51.492;10.368;2023-05-07T09:43:59;98843.38;;;10.28;80.09
75317;BME280;63913;51.492;10.368;2023-05-07T09:46:30;98835.88;;;10.36;80.78
75317;BME280;63913;51.492;10.368;2023-05-07T09:49:01;98845.56;;;10.45;80.72
75317;BME280;63913;51.492;10.368;2023-05-07T09:51:59;98843.03;;;10.48;79.92
75317;BME280;63913;51.492;10.368;2023-05-07T09:54:25;98847.47;;;10.52;80.26
75317;BME280;63913;51.492;10.368;2023-05-07T09:56:53;98849.00;;;10.45;79.62
75317;BME280;63913;51.492;10.368;2023-05-07T09:59:22;98856.44;;;10.36;80.13
75317;BME280;63913;51.492;10.368;2023-05-07T10:01:48;98850.44;;;10.36;80.01
75317;BME280;63913;51.492;10.368;2023-05-07T10:04:15;98850.38;;;10.34;80.28
75317;BME280;63913;51.492;10.368;2023-05-07T10:06:43;98851.31;;;10.36;80.43
75317;BME280;63913;51.492;10.368;2023-05-07T10:09:10;98864.22;;;10.39;80.22
75317;BME280;63913;51.492;10.368;2023-05-07T10:11:37;98855.56;;;10.36;80.16
75317;BME280;63913;51.492;10.368;2023-05-07T10:14:03;98857.47;;;10.43;80.13
75317;BME280;63913;51.492;10.368;2023-05-07T10:16:33;98852.34;;;10.43;79.76
75317;BME280;63913;51.492;10.368;2023-05-07T10:19:05;98855.84;;;10.46;80.00
75317;BME280;63913;51.492;10.368;2023-05-07T10:21:38;98865.31;;;10.47;80.11
75317;BME280;63913;51.492;10.368;2023-05-07T10:24:19;98848.06;;;10.43;79.69
75317;BME280;63913;51.492;10.368;2023-05-07T10:26:47;98852.38;;;10.44;79.90
75317;BME280;63913;51.492;10.368;2023-05-07T10:32:09;98845.88;;;10.57;80.04
75317;BME280;63913;51.492;10.368;2023-05-07T10:34:42;98838.22;;;10.58;80.21
75317;BME280;63913;51.492;10.368;2023-05-07T10:37:09;98845.00;;;10.56;79.32
75317;BME280;63913;51.492;10.368;2023-05-07T10:39:36;98860.38;;;10.53;79.48
75317;BME280;63913;51.492;10.368;2023-05-07T10:42:13;98863.09;;;10.59;79.99
75317;BME280;63913;51.492;10.368;2023-05-07T10:44:43;98865.72;;;10.61;79.26
75317;BME280;63913;51.492;10.368;2023-05-07T10:47:16;98857.25;;;10.65;78.96
75317;BME280;63913;51.492;10.368;2023-05-07T10:52:24;98849.78;;;10.74;78.70
75317;BME280;63913;51.492;10.368;2023-05-07T10:57:40;98858.25;;;10.70;78.02
75317;BME280;63913;51.492;10.368;2023-05-07T11:03:04;98854.78;;;10.68;78.39
75317;BME280;63913;51.492;10.368;2023-05-07T11:05:38;98854.69;;;10.65;78.54
75317;BME280;63913;51.492;10.368;2023-05-07T11:08:18;98864.13;;;10.66;78.78
75317;BME280;63913;51.492;10.368;2023-05-07T11:11:04;98851.38;;;10.69;78.24
75317;BME280;63913;51.492;10.368;2023-05-07T11:18:53;98861.81;;;10.75;77.86
75317;BME280;63913;51.492;10.368;2023-05-07T11:21:41;98857.72;;;10.82;78.33
75317;BME280;63913;51.492;10.368;2023-05-07T11:24:39;98857.72;;;10.82;77.67
75317;BME280;63913;51.492;10.368;2023-05-07T11:27:05;98860.28;;;10.82;77.70
75317;BME280;63913;51.492;10.368;2023-05-07T11:29:31;98855.13;;;10.82;77.62
75317;BME280;63913;51.492;10.368;2023-05-07T11:32:05;98851.72;;;10.83;77.44
75317;BME280;63913;51.492;10.368;2023-05-07T11:34:38;98848.75;;;10.67;77.16
75317;BME280;63913;51.492;10.368;2023-05-07T11:37:04;98850.56;;;10.71;77.39
75317;BME280;63913;51.492;10.368;2023-05-07T11:39:49;98849.91;;;10.79;77.61
75317;BME280;63913;51.492;10.368;2023-05-07T11:42:32;98864.72;;;10.87;77.26
75317;BME280;63913;51.492;10.368;2023-05-07T11:44:58;98851.16;;;10.93;77.17
75317;BME280;63913;51.492;10.368;2023-05-07T11:47:23;98851.13;;;10.91;76.66
75317;BME280;63913;51.492;10.368;2023-05-07T11:49:50;98854.41;;;10.86;76.41
75317;BME280;63913;51.492;10.368;2023-05-07T11:52:17;98870.03;;;10.93;76.93
75317;BME280;63913;51.492;10.368;2023-05-07T11:54:54;98870.28;;;11.02;76.97
75317;BME280;63913;51.492;10.368;2023-05-07T11:57:21;98864.41;;;11.08;76.16
75317;BME280;63913;51.492;10.368;2023-05-07T11:59:46;98875.81;;;11.18;75.96
75317;BME280;63913;51.492;10.368;2023-05-07T12:02:14;98876.91;;;11.26;76.69
75317;BME280;63913;51.492;10.368;2023-05-07T12:04:40;98881.22;;;11.28;76.06
75317;BME280;63913;51.492;10.368;2023-05-07T12:07:14;98885.78;;;11.38;74.76
75317;BME280;63913;51.492;10.368;2023-05-07T12:09:40;98878.06;;;11.38;74.20
75317;BME280;63913;51.492;10.368;2023-05-07T12:12:06;98873.16;;;11.47;74.60
75317;BME280;63913;51.492;10.368;2023-05-07T12:14:31;98882.91;;;11.61;74.73
75317;BME280;63913;51.492;10.368;2023-05-07T12:16:58;98872.72;;;11.65;73.70
75317;BME280;63913;51.492;10.368;2023-05-07T12:19:28;98868.78;;;11.79;74.38
75317;BME280;63913;51.492;10.368;2023-05-07T12:21:54;98871.53;;;11.87;73.50
75317;BME280;63913;51.492;10.368;2023-05-07T12:24:19;98869.81;;;11.86;72.52
75317;BME280;63913;51.492;10.368;2023-05-07T12:26:45;98861.84;;;11.77;73.07
75317;BME280;63913;51.492;10.368;2023-05-07T12:29:11;98871.06;;;11.69;72.29
75317;BME280;63913;51.492;10.368;2023-05-07T12:31:36;98871.44;;;11.82;73.81
75317;BME280;63913;51.492;10.368;2023-05-07T12:34:02;98864.72;;;11.89;72.83
75317;BME280;63913;51.492;10.368;2023-05-07T12:36:36;98863.19;;;11.97;72.33
75317;BME280;63913;51.492;10.368;2023-05-07T12:39:04;98874.25;;;11.93;72.40
75317;BME280;63913;51.492;10.368;2023-05-07T12:41:30;98861.53;;;12.01;72.02
75317;BME280;63913;51.492;10.368;2023-05-07T12:43:56;98864.19;;;12.04;72.18
75317;BME280;63913;51.492;10.368;2023-05-07T12:46:22;98871.34;;;12.15;72.29
75317;BME280;63913;51.492;10.368;2023-05-07T12:48:48;98872.25;;;12.19;71.82
75317;BME280;63913;51.492;10.368;2023-05-07T12:51:15;98876.88;;;11.95;71.61
75317;BME280;63913;51.492;10.368;2023-05-07T12:53:41;98869.25;;;11.99;71.60
75317;BME280;63913;51.492;10.368;2023-05-07T12:56:09;98876.94;;;11.98;71.81
75317;BME280;63913;51.492;10.368;2023-05-07T12:58:35;98873.38;;;11.93;71.49
75317;BME280;63913;51.492;10.368;2023-05-07T13:01:06;98881.44;;;12.06;71.21
75317;BME280;63913;51.492;10.368;2023-05-07T13:03:33;98871.31;;;12.14;70.78
75317;BME280;63913;51.492;10.368;2023-05-07T13:06:00;98867.09;;;12.19;70.23
75317;BME280;63913;51.492;10.368;2023-05-07T13:08:34;98885.22;;;12.22;70.70
75317;BME280;63913;51.492;10.368;2023-05-07T13:11:02;98886.28;;;12.30;70.68
75317;BME280;63913;51.492;10.368;2023-05-07T13:13:32;98876.94;;;12.37;69.98